createdAt,value
2023-05-17T00:02:10.388Z,11.93
2023-05-17T00:07:15.197Z,11.23
2023-05-17T00:12:19.977Z,11.23
2023-05-17T00:17:27.371Z,10.32
2023-05-17T00:22:32.253Z,11.00
2023-05-17T00:27:36.960Z,11.77
2023-05-17T00:32:45.880Z,11.15
2023-05-17T00:37:50.691Z,10.43
2023-05-17T00:42:55.533Z,11.25
2023-05-17T00:48:02.988Z,11.70
2023-05-17T00:53:07.920Z,11.82
2023-05-17T00:58:12.700Z,14.48
2023-05-17T01:03:20.301Z,13.93
2023-05-17T01:08:25.236Z,15.60
2023-05-17T01:13:33.641Z,12.48
2023-05-17T01:18:42.773Z,11.43
2023-05-17T01:23:52.106Z,11.65
2023-05-17T01:29:00.482Z,10.77
2023-05-17T01:34:05.277Z,10.73
2023-05-17T01:39:10.032Z,10.00
2023-05-17T01:44:21.691Z,9.90
2023-05-17T01:49:27.953Z,10.70
2023-05-17T01:54:34.820Z,9.95
2023-05-17T01:59:42.823Z,10.45
2023-05-17T02:04:47.626Z,13.35
2023-05-17T02:09:52.406Z,12.63
2023-05-17T02:14:59.750Z,12.27
2023-05-17T02:20:04.956Z,11.80
2023-05-17T02:25:10.608Z,6.82
2023-05-17T02:30:18.498Z,5.25
2023-05-17T02:35:23.458Z,6.40
2023-05-17T02:40:28.242Z,7.63
2023-05-17T02:45:36.248Z,5.35
2023-05-17T02:50:41.154Z,6.40
2023-05-17T02:55:45.960Z,5.82
2023-05-17T03:00:53.388Z,5.53
2023-05-17T03:05:58.069Z,5.85
2023-05-17T03:11:02.785Z,5.70
2023-05-17T03:16:10.345Z,4.70
2023-05-17T03:21:15.092Z,3.22
2023-05-17T03:26:20.064Z,2.40
2023-05-17T03:31:27.554Z,2.38
2023-05-17T03:36:32.365Z,2.50
2023-05-17T03:41:37.161Z,2.50
2023-05-17T03:46:44.631Z,2.78
2023-05-17T03:51:49.511Z,2.28
2023-05-17T03:56:54.208Z,3.00
2023-05-17T04:02:01.588Z,3.25
2023-05-17T04:07:06.863Z,3.78
2023-05-17T04:12:12.258Z,3.17
2023-05-17T04:17:19.614Z,3.63
2023-05-17T04:22:24.784Z,2.92
2023-05-17T04:27:29.749Z,2.92
2023-05-17T04:32:37.151Z,2.75
2023-05-17T04:37:42.633Z,2.95
2023-05-17T04:42:47.955Z,2.53
2023-05-17T04:47:56.215Z,3.20
2023-05-17T04:53:01.150Z,2.58
2023-05-17T04:58:06.084Z,2.58
2023-05-17T05:03:13.554Z,3.42
2023-05-17T05:08:18.382Z,2.42
2023-05-17T05:13:23.409Z,2.90
2023-05-17T05:18:31.016Z,2.53
2023-05-17T05:23:36.037Z,2.30
2023-05-17T05:28:40.911Z,2.22
2023-05-17T05:33:48.429Z,3.03
2023-05-17T05:38:54.784Z,3.22
2023-05-17T05:43:59.598Z,3.22
2023-05-17T05:49:07.028Z,2.50
2023-05-17T05:54:11.992Z,1.98
2023-05-17T05:59:16.719Z,1.90
2023-05-17T06:04:33.105Z,2.08
2023-05-17T06:09:46.088Z,2.63
2023-05-17T07:30:51.309Z,3.40
2023-05-17T07:35:59.074Z,1.53
2023-05-17T08:02:26.781Z,1.60
2023-05-17T08:07:31.626Z,1.98
2023-05-17T08:12:36.397Z,1.38
2023-05-17T08:17:47.423Z,1.67
2023-05-17T08:22:52.505Z,2.28
2023-05-17T08:27:57.305Z,3.40
2023-05-17T08:33:04.868Z,1.38
2023-05-17T08:38:09.692Z,1.67
2023-05-17T08:43:15.022Z,1.40
2023-05-17T08:48:23.082Z,1.08
2023-05-17T08:53:28.350Z,1.75
2023-05-17T08:58:44.749Z,0.95
2023-05-17T09:04:03.715Z,1.40
2023-05-17T09:14:13.007Z,1.58
2023-05-17T09:19:20.940Z,1.23
2023-05-17T09:29:33.415Z,2.30
2023-05-17T09:34:43.925Z,1.48
2023-05-17T09:39:49.452Z,1.42
2023-05-17T09:44:55.844Z,1.40
2023-05-17T09:50:04.081Z,1.25
2023-05-17T09:55:10.244Z,1.80
2023-05-17T10:00:17.809Z,1.55
2023-05-17T10:05:25.328Z,2.10
2023-05-17T10:10:30.680Z,1.60
2023-05-17T10:15:36.036Z,1.80
2023-05-17T10:20:43.689Z,1.40
2023-05-17T10:25:48.614Z,2.30
2023-05-17T10:30:54.408Z,1.58
2023-05-17T10:36:02.543Z,1.40
2023-05-17T10:41:07.697Z,1.50
2023-05-17T10:46:15.792Z,1.45
2023-05-17T10:51:25.280Z,1.58
2023-05-17T10:56:30.158Z,1.80
2023-05-17T11:01:50.023Z,1.77
2023-05-17T11:06:58.045Z,1.30
2023-05-17T11:12:12.488Z,1.50
2023-05-17T11:17:18.876Z,1.88
2023-05-17T11:22:28.690Z,1.33
2023-05-17T11:27:39.253Z,1.17
2023-05-17T11:32:49.761Z,1.25
2023-05-17T11:38:14.910Z,1.90
2023-05-17T11:43:20.676Z,3.25
2023-05-17T11:48:26.172Z,2.35
2023-05-17T11:53:34.101Z,1.70
2023-05-17T11:58:39.276Z,1.45
2023-05-17T12:03:44.037Z,2.15
2023-05-17T12:08:51.522Z,2.55
2023-05-17T12:13:56.250Z,2.47
2023-05-17T12:19:01.595Z,1.90
2023-05-17T12:24:09.636Z,2.13
2023-05-17T12:29:15.184Z,2.25
2023-05-17T12:34:20.931Z,2.00
2023-05-17T12:39:28.525Z,1.60
2023-05-17T12:44:33.310Z,2.08
2023-05-17T12:49:41.528Z,2.08
2023-05-17T12:54:50.697Z,2.35
2023-05-17T12:59:59.343Z,2.20
2023-05-17T14:20:34.124Z,3.05
2023-05-17T14:25:39.178Z,3.17
2023-05-17T14:30:43.964Z,2.70
2023-05-17T14:35:51.490Z,5.32
2023-05-17T14:40:56.463Z,7.13
2023-05-17T14:46:02.025Z,8.90
2023-05-17T14:51:09.542Z,8.75
2023-05-17T14:56:15.576Z,9.90
2023-05-17T15:01:21.284Z,8.32
2023-05-17T15:06:37.978Z,6.85
2023-05-17T15:11:45.886Z,5.32
2023-05-17T15:16:50.959Z,6.10
2023-05-17T15:21:58.353Z,6.55
2023-05-17T15:27:03.202Z,8.15
2023-05-17T15:32:08.196Z,11.55
2023-05-17T15:37:15.599Z,7.80
2023-05-17T16:19:24.374Z,4.57
2023-05-17T16:24:29.618Z,5.23
2023-05-17T16:29:40.305Z,5.28
2023-05-17T16:34:48.102Z,7.68
2023-05-17T16:39:53.271Z,8.32
2023-05-17T16:44:58.418Z,8.70
2023-05-17T16:50:06.193Z,6.07
2023-05-17T16:55:12.731Z,6.22
2023-05-17T17:00:18.982Z,7.20
2023-05-17T17:05:26.790Z,7.97
2023-05-17T17:10:34.403Z,9.57
2023-05-17T17:15:39.635Z,13.40
2023-05-17T17:20:47.514Z,11.60
2023-05-17T17:25:52.639Z,8.32
2023-05-17T17:30:59.147Z,5.78
2023-05-17T17:36:09.420Z,6.07
2023-05-17T17:41:14.583Z,3.60
2023-05-17T17:46:19.802Z,6.00
2023-05-17T17:51:27.631Z,6.30
2023-05-17T17:56:33.104Z,7.82
2023-05-17T18:01:39.448Z,7.78
2023-05-17T18:06:47.146Z,8.43
2023-05-17T18:11:52.437Z,8.80
2023-05-17T18:16:57.641Z,8.40
2023-05-17T18:22:05.589Z,9.32
2023-05-17T18:27:13.431Z,8.85
2023-05-17T18:32:18.656Z,8.90
2023-05-17T18:37:26.556Z,5.07
2023-05-17T18:42:31.903Z,3.47
2023-05-17T18:47:37.246Z,5.25
2023-05-17T18:52:45.012Z,5.45
2023-05-17T18:57:50.571Z,6.40
2023-05-17T19:02:56.318Z,6.93
2023-05-17T19:08:04.060Z,6.40
2023-05-17T19:13:09.375Z,6.57
2023-05-17T19:18:14.503Z,8.00
2023-05-17T19:23:22.226Z,6.68
2023-05-17T19:28:27.297Z,6.35
2023-05-17T19:33:34.247Z,6.10
2023-05-17T19:38:41.996Z,5.05
2023-05-17T19:43:47.102Z,5.03
2023-05-17T19:48:53.145Z,5.95
2023-05-17T19:54:00.831Z,4.28
2023-05-17T19:59:06.511Z,5.43
2023-05-17T20:04:11.782Z,5.85
2023-05-17T20:09:19.632Z,5.05
2023-05-17T20:14:24.877Z,4.88
2023-05-17T20:19:32.849Z,5.88
2023-05-17T20:24:40.710Z,5.68
2023-05-17T20:29:45.860Z,5.15
2023-05-17T20:34:50.912Z,5.75
2023-05-17T20:40:00.464Z,6.20
2023-05-17T20:45:05.595Z,3.38
2023-05-17T20:50:14.323Z,3.30
2023-05-17T20:55:22.151Z,2.97
2023-05-17T21:00:27.322Z,2.90
2023-05-17T21:05:36.817Z,3.20
2023-05-17T21:10:46.816Z,4.88
2023-05-17T21:15:52.107Z,7.65
2023-05-17T21:20:57.328Z,9.43
2023-05-17T21:26:05.524Z,9.15
2023-05-17T21:31:12.368Z,9.65
2023-05-17T21:36:17.474Z,9.07
2023-05-17T21:41:25.258Z,8.65
2023-05-17T21:46:30.451Z,8.05
2023-05-17T21:51:36.180Z,8.30
2023-05-17T21:56:45.245Z,8.85
2023-05-17T22:01:50.644Z,8.07
2023-05-17T22:06:56.197Z,9.95
2023-05-17T22:12:05.285Z,10.75
2023-05-17T22:17:10.640Z,9.67
2023-05-17T22:22:16.290Z,8.40
2023-05-17T22:27:24.245Z,8.98
2023-05-17T22:32:29.973Z,8.60
2023-05-17T22:37:35.232Z,8.23
2023-05-17T22:42:44.505Z,9.18
2023-05-17T22:47:51.084Z,8.43
2023-05-17T22:52:56.512Z,7.30
2023-05-17T22:58:04.370Z,8.38
2023-05-17T23:03:09.649Z,6.95
2023-05-17T23:08:15.850Z,7.75
2023-05-17T23:13:23.695Z,8.10
2023-05-17T23:18:29.988Z,8.70
2023-05-17T23:23:35.232Z,7.95
2023-05-17T23:28:43.011Z,9.00
2023-05-17T23:33:48.089Z,7.35
2023-05-17T23:38:53.208Z,7.22
2023-05-17T23:44:00.949Z,7.20
2023-05-17T23:49:06.123Z,6.50
2023-05-17T23:54:12.530Z,7.13
2023-05-17T23:59:21.338Z,5.40
